createdAt,value
2023-03-12T00:01:37.858Z,5.65
2023-03-12T00:04:05.605Z,9.27
2023-03-12T00:06:33.481Z,3.40
2023-03-12T00:09:01.975Z,3.33
2023-03-12T00:11:31.139Z,2.65
2023-03-12T00:14:00.159Z,3.85
2023-03-12T00:16:28.492Z,4.65
2023-03-12T00:18:56.750Z,4.82
2023-03-12T00:21:24.394Z,5.22
2023-03-12T00:23:53.323Z,4.43
2023-03-12T00:26:21.452Z,7.97
2023-03-12T00:28:50.667Z,5.63
2023-03-12T00:31:19.455Z,7.03
2023-03-12T00:33:49.348Z,6.65
2023-03-12T00:36:17.459Z,6.15
2023-03-12T00:38:45.060Z,4.70
2023-03-12T00:41:12.808Z,4.40
2023-03-12T00:43:40.445Z,6.22
2023-03-12T00:46:09.426Z,5.03
2023-03-12T00:48:37.231Z,6.53
2023-03-12T00:51:05.038Z,5.90
2023-03-12T00:53:32.671Z,4.53
2023-03-12T00:56:00.514Z,7.65
2023-03-12T00:58:28.130Z,4.65
2023-03-12T01:00:56.156Z,6.68
2023-03-12T01:03:25.274Z,6.05
2023-03-12T01:05:55.664Z,9.50
2023-03-12T01:08:23.754Z,8.35
2023-03-12T01:10:51.430Z,4.75
2023-03-12T01:13:19.145Z,11.30
2023-03-12T01:15:46.738Z,3.42
2023-03-12T01:18:14.532Z,5.32
2023-03-12T01:20:43.613Z,4.90
2023-03-12T01:23:11.417Z,5.95
2023-03-12T01:25:39.102Z,5.30
2023-03-12T01:28:06.949Z,4.63
2023-03-12T01:30:34.628Z,9.63
2023-03-12T01:33:02.264Z,3.05
2023-03-12T01:35:30.041Z,5.32
2023-03-12T01:37:59.038Z,4.72
2023-03-12T01:40:29.003Z,7.30
2023-03-12T01:42:57.536Z,5.30
2023-03-12T01:45:43.656Z,4.43
2023-03-12T01:48:11.574Z,4.38
2023-03-12T01:50:39.500Z,6.57
2023-03-12T01:53:09.533Z,6.82
2023-03-12T01:55:37.204Z,15.07
2023-03-12T01:58:05.483Z,7.63
2023-03-12T02:00:33.177Z,3.47
2023-03-12T02:03:02.547Z,5.95
2023-03-12T02:05:33.320Z,11.68
2023-03-12T02:08:01.307Z,3.20
2023-03-12T02:10:30.360Z,4.15
2023-03-12T02:12:58.028Z,5.93
2023-03-12T02:15:25.869Z,9.32
2023-03-12T02:17:54.215Z,5.22
2023-03-12T02:20:24.674Z,5.85
2023-03-12T02:22:56.183Z,5.38
2023-03-12T02:25:30.912Z,5.15
2023-03-12T02:27:59.790Z,5.00
2023-03-12T02:30:28.282Z,4.30
2023-03-12T02:32:56.200Z,5.88
2023-03-12T02:35:23.987Z,3.35
2023-03-12T02:37:52.536Z,8.52
2023-03-12T02:40:24.691Z,3.30
2023-03-12T02:42:53.982Z,7.50
2023-03-12T02:45:21.785Z,7.05
2023-03-12T02:47:49.395Z,5.70
2023-03-12T02:50:17.309Z,4.45
2023-03-12T02:52:45.322Z,4.00
2023-03-12T02:55:13.219Z,3.40
2023-03-12T02:57:40.806Z,6.82
2023-03-12T03:00:12.383Z,4.85
2023-03-12T03:02:40.176Z,4.35
2023-03-12T03:05:08.853Z,7.03
2023-03-12T03:07:37.595Z,4.63
2023-03-12T03:10:05.517Z,7.07
2023-03-12T03:12:33.199Z,4.13
2023-03-12T03:15:00.827Z,7.38
2023-03-12T03:17:29.795Z,5.05
2023-03-12T03:19:57.527Z,5.60
2023-03-12T03:22:25.156Z,5.05
2023-03-12T03:24:54.088Z,13.93
2023-03-12T03:27:21.804Z,7.72
2023-03-12T03:29:52.864Z,7.70
2023-03-12T03:32:20.505Z,5.72
2023-03-12T03:34:50.190Z,10.52
2023-03-12T03:37:17.849Z,6.57
2023-03-12T03:39:45.571Z,6.35
2023-03-12T03:42:13.223Z,5.82
2023-03-12T03:44:40.808Z,4.75
2023-03-12T03:47:08.535Z,6.47
2023-03-12T03:49:36.137Z,7.60
2023-03-12T03:52:06.322Z,9.02
2023-03-12T03:54:34.060Z,7.22
2023-03-12T03:57:02.188Z,6.55
2023-03-12T03:59:29.858Z,8.07
2023-03-12T04:01:57.473Z,11.77
2023-03-12T04:04:25.162Z,10.95
2023-03-12T04:06:52.804Z,9.35
2023-03-12T04:09:21.778Z,6.82
2023-03-12T04:11:49.389Z,8.35
2023-03-12T04:14:17.716Z,7.60
2023-03-12T04:16:45.327Z,6.75
2023-03-12T04:19:13.015Z,8.35
2023-03-12T04:21:40.652Z,7.32
2023-03-12T04:24:08.951Z,8.73
2023-03-12T04:26:37.921Z,9.80
2023-03-12T04:29:05.550Z,10.35
2023-03-12T04:31:33.300Z,10.07
2023-03-12T04:34:00.955Z,7.75
2023-03-12T04:36:28.805Z,9.63
2023-03-12T04:38:57.665Z,8.10
2023-03-12T04:41:25.379Z,12.10
2023-03-12T04:43:54.506Z,9.23
2023-03-12T04:46:22.272Z,8.38
2023-03-12T04:48:49.942Z,11.25
2023-03-12T04:51:17.752Z,10.60
2023-03-12T04:53:45.478Z,12.30
2023-03-12T04:56:13.549Z,15.50
2023-03-12T04:58:41.220Z,14.57
2023-03-12T05:01:13.638Z,13.52
2023-03-12T05:03:41.460Z,14.48
2023-03-12T05:06:09.066Z,13.10
2023-03-12T05:08:36.696Z,19.00
2023-03-12T05:11:04.448Z,16.65
2023-03-12T05:13:32.062Z,13.90
2023-03-12T05:15:59.737Z,21.88
2023-03-12T05:18:28.756Z,12.98
2023-03-12T05:21:01.218Z,16.10
2023-03-12T05:23:29.382Z,16.65
2023-03-12T05:25:57.105Z,18.58
2023-03-12T05:28:28.401Z,17.70
2023-03-12T05:30:56.733Z,18.45
2023-03-12T05:33:24.830Z,22.90
2023-03-12T05:35:54.047Z,18.33
2023-03-12T05:38:21.702Z,26.33
2023-03-12T05:40:53.568Z,19.13
2023-03-12T05:43:21.661Z,20.08
2023-03-12T05:45:49.725Z,25.25
2023-03-12T05:48:20.883Z,22.95
2023-03-12T05:50:48.562Z,24.10
2023-03-12T05:53:17.615Z,28.15
2023-03-12T05:55:45.283Z,24.90
2023-03-12T05:58:12.916Z,23.52
2023-03-12T06:00:42.303Z,25.55
2023-03-12T06:03:10.111Z,26.27
2023-03-12T06:05:37.969Z,23.73
2023-03-12T06:08:06.554Z,26.92
2023-03-12T06:10:35.583Z,31.60
2023-03-12T06:13:03.163Z,29.73
2023-03-12T06:15:30.878Z,26.95
2023-03-12T06:17:58.504Z,30.67
2023-03-12T06:20:26.155Z,25.83
2023-03-12T06:22:53.840Z,26.83
2023-03-12T06:25:21.568Z,24.73
2023-03-12T06:27:50.569Z,25.30
2023-03-12T06:30:18.491Z,30.02
2023-03-12T06:32:46.229Z,24.42
2023-03-12T06:35:13.895Z,31.98
2023-03-12T06:37:41.535Z,36.28
2023-03-12T06:40:11.117Z,23.80
2023-03-12T06:42:38.751Z,22.58
2023-03-12T06:45:08.566Z,28.67
2023-03-12T06:47:36.457Z,29.10
2023-03-12T06:50:04.489Z,27.90
2023-03-12T06:52:32.134Z,33.63
2023-03-12T06:54:59.901Z,29.00
2023-03-12T06:57:28.432Z,22.90
2023-03-12T06:59:56.033Z,28.23
2023-03-12T07:02:25.049Z,22.80
2023-03-12T07:04:52.834Z,29.67
2023-03-12T07:07:20.583Z,26.35
2023-03-12T07:09:49.660Z,43.17
2023-03-12T07:12:17.295Z,32.30
2023-03-12T07:14:45.003Z,37.55
2023-03-12T07:17:12.752Z,51.08
2023-03-12T07:19:41.819Z,38.88
2023-03-12T07:22:11.360Z,39.97
2023-03-12T07:24:39.862Z,32.05
2023-03-12T07:27:10.554Z,37.85
2023-03-12T07:29:38.540Z,38.08
2023-03-12T07:32:06.447Z,35.42
2023-03-12T07:34:35.219Z,28.85
2023-03-12T07:37:05.109Z,29.05
2023-03-12T07:39:32.758Z,30.90
2023-03-12T07:42:00.757Z,35.63
2023-03-12T07:44:31.589Z,61.28
2023-03-12T07:47:04.794Z,41.45
2023-03-12T07:49:41.967Z,36.13
2023-03-12T07:52:11.563Z,44.28
2023-03-12T07:54:39.767Z,37.90
2023-03-12T07:57:07.815Z,31.70
2023-03-12T07:59:36.082Z,35.90
2023-03-12T08:02:03.963Z,33.20
2023-03-12T08:04:32.207Z,23.98
2023-03-12T08:07:00.039Z,37.20
2023-03-12T08:09:29.483Z,41.35
2023-03-12T08:11:57.210Z,34.78
2023-03-12T08:14:26.493Z,36.90
2023-03-12T08:16:54.269Z,33.67
2023-03-12T08:19:21.932Z,25.55
2023-03-12T08:21:50.114Z,33.80
2023-03-12T08:24:17.761Z,29.05
2023-03-12T08:26:46.997Z,33.97
2023-03-12T08:29:14.615Z,28.10
2023-03-12T08:31:57.401Z,35.25
2023-03-12T08:34:29.384Z,28.88
2023-03-12T08:36:57.535Z,24.90
2023-03-12T08:39:25.337Z,21.08
2023-03-12T08:41:55.489Z,30.55
2023-03-12T08:44:23.616Z,20.58
2023-03-12T08:46:51.531Z,28.77
2023-03-12T08:49:19.662Z,27.42
2023-03-12T08:51:47.347Z,31.70
2023-03-12T08:54:14.991Z,21.15
2023-03-12T08:56:43.731Z,31.83
2023-03-12T08:59:13.386Z,26.33
2023-03-12T09:01:43.801Z,19.08
2023-03-12T09:04:11.886Z,19.38
2023-03-12T09:06:39.633Z,20.25
2023-03-12T09:09:09.064Z,30.67
2023-03-12T09:11:37.343Z,42.72
2023-03-12T09:16:54.094Z,32.03
2023-03-12T09:19:21.839Z,22.15
2023-03-12T09:21:49.474Z,21.20
2023-03-12T09:24:17.170Z,23.52
2023-03-12T09:26:44.917Z,27.83
2023-03-12T09:29:12.646Z,21.40
2023-03-12T09:31:40.270Z,14.50
2023-03-12T09:34:09.301Z,19.60
2023-03-12T09:36:37.148Z,21.23
2023-03-12T09:39:05.102Z,23.67
2023-03-12T09:41:35.097Z,29.63
2023-03-12T09:44:04.895Z,29.58
2023-03-12T09:46:36.023Z,23.02
2023-03-12T09:49:06.705Z,26.25
2023-03-12T09:51:38.531Z,33.63
2023-03-12T09:54:08.124Z,25.63
2023-03-12T09:56:36.112Z,28.52
2023-03-12T09:59:04.136Z,17.80
2023-03-12T10:01:37.851Z,26.25
2023-03-12T10:04:08.493Z,21.98
2023-03-12T10:06:41.162Z,29.50
2023-03-12T10:09:17.983Z,30.27
2023-03-12T10:11:50.874Z,32.78
2023-03-12T10:14:24.232Z,18.65
2023-03-12T10:16:59.894Z,33.38
2023-03-12T10:19:42.657Z,31.05
2023-03-12T10:22:16.514Z,29.77
2023-03-12T10:24:52.570Z,24.05
2023-03-12T10:27:23.802Z,21.35
2023-03-12T10:29:53.481Z,23.90
2023-03-12T10:32:23.018Z,26.00
2023-03-12T10:34:53.696Z,19.15
2023-03-12T10:37:24.622Z,17.60
2023-03-12T10:39:52.859Z,23.75
2023-03-12T10:42:21.669Z,34.53
2023-03-12T10:44:52.166Z,22.98
2023-03-12T10:47:35.501Z,17.20
2023-03-12T10:50:13.567Z,17.13
2023-03-12T10:52:42.638Z,20.17
2023-03-12T10:55:20.656Z,33.53
2023-03-12T10:57:49.401Z,27.05
2023-03-12T11:00:20.958Z,16.30
2023-03-12T11:02:56.038Z,20.42
2023-03-12T11:05:25.194Z,22.45
2023-03-12T11:07:54.890Z,19.60
2023-03-12T11:10:23.836Z,29.65
2023-03-12T11:12:59.796Z,25.35
2023-03-12T11:15:29.159Z,17.55
2023-03-12T11:18:18.620Z,20.85
2023-03-12T11:20:46.424Z,26.38
2023-03-12T11:23:16.754Z,20.13
2023-03-12T11:25:44.475Z,19.55
2023-03-12T11:28:19.174Z,36.42
2023-03-12T11:30:47.052Z,31.73
2023-03-12T11:33:14.769Z,27.23
2023-03-12T11:35:47.053Z,18.88
2023-03-12T11:38:18.785Z,16.00
2023-03-12T11:40:56.697Z,16.17
2023-03-12T11:43:42.666Z,23.15
2023-03-12T11:46:21.006Z,27.98
2023-03-12T11:48:53.069Z,15.77
2023-03-12T11:51:27.906Z,14.77
2023-03-12T11:54:08.685Z,13.55
2023-03-12T11:56:38.617Z,9.90
2023-03-12T11:59:22.191Z,18.13
2023-03-12T12:01:56.368Z,20.25
2023-03-12T12:04:37.848Z,14.48
2023-03-12T12:07:10.332Z,18.80
2023-03-12T12:09:43.401Z,24.17
2023-03-12T12:12:20.537Z,19.60
2023-03-12T12:14:58.298Z,11.73
2023-03-12T12:17:32.792Z,17.38
2023-03-12T12:20:12.983Z,25.13
2023-03-12T12:22:45.964Z,24.95
2023-03-12T12:25:22.639Z,26.50
2023-03-12T12:27:55.557Z,13.73
2023-03-12T12:30:26.313Z,19.42
2023-03-12T12:33:00.661Z,18.80
2023-03-12T12:35:30.726Z,14.80
2023-03-12T12:37:59.817Z,14.70
2023-03-12T12:40:32.093Z,17.63
2023-03-12T12:43:02.886Z,20.05
2023-03-12T12:45:31.288Z,23.08
2023-03-12T12:48:01.697Z,15.18
2023-03-12T12:50:32.000Z,18.98
2023-03-12T12:53:03.871Z,14.82
2023-03-12T12:55:35.298Z,18.75
2023-03-12T12:58:05.906Z,20.10
2023-03-12T13:00:41.102Z,20.88
2023-03-12T13:03:13.017Z,18.48
2023-03-12T13:05:46.955Z,18.80
2023-03-12T13:08:29.390Z,24.17
2023-03-12T13:11:16.106Z,17.38
2023-03-12T13:13:46.970Z,17.73
2023-03-12T13:16:19.770Z,19.48
2023-03-12T13:18:57.254Z,17.30
2023-03-12T13:21:26.700Z,12.32
2023-03-12T13:23:58.719Z,21.33
2023-03-12T13:26:30.409Z,16.73
2023-03-12T13:29:11.796Z,24.50
2023-03-12T13:31:40.952Z,19.95
2023-03-12T13:34:26.234Z,16.13
2023-03-12T13:36:59.479Z,7.60
2023-03-12T13:39:32.019Z,12.38
2023-03-12T13:42:01.648Z,17.63
2023-03-12T13:44:37.841Z,19.67
2023-03-12T13:47:06.559Z,15.15
2023-03-12T13:49:41.819Z,11.82
2023-03-12T13:54:42.753Z,9.32
2023-03-12T13:57:26.170Z,22.98
2023-03-12T13:59:53.951Z,18.55
2023-03-12T14:02:24.718Z,14.25
2023-03-12T14:04:52.795Z,20.35
2023-03-12T14:07:38.761Z,18.17
2023-03-12T14:10:12.638Z,22.05
2023-03-12T14:12:45.393Z,14.35
2023-03-12T14:15:21.075Z,13.50
2023-03-12T14:17:54.696Z,21.20
2023-03-12T14:20:23.856Z,19.48
2023-03-12T14:22:53.661Z,18.65
2023-03-12T14:25:25.102Z,25.98
2023-03-12T14:27:54.321Z,18.08
2023-03-12T14:30:23.868Z,14.75
2023-03-12T14:32:54.549Z,14.82
2023-03-12T14:35:24.647Z,9.07
2023-03-12T14:37:55.809Z,13.60
2023-03-12T14:40:25.183Z,19.13
2023-03-12T14:42:55.613Z,14.50
2023-03-12T14:45:24.276Z,11.07
2023-03-12T14:47:54.021Z,13.60
2023-03-12T14:50:22.431Z,10.75
2023-03-12T14:52:50.095Z,15.02
2023-03-12T14:55:21.008Z,11.73
2023-03-12T14:57:48.741Z,18.38
2023-03-12T15:00:26.122Z,9.80
2023-03-12T15:02:54.441Z,15.48
2023-03-12T15:05:22.772Z,13.77
2023-03-12T15:07:51.243Z,18.13
2023-03-12T15:10:21.087Z,18.05
2023-03-12T15:12:49.175Z,17.73
2023-03-12T15:15:26.238Z,17.40
2023-03-12T15:17:55.530Z,13.57
2023-03-12T15:20:25.596Z,12.48
2023-03-12T15:22:53.733Z,15.57
2023-03-12T15:25:25.376Z,14.80
2023-03-12T15:28:03.189Z,15.32
2023-03-12T15:30:31.331Z,14.55
2023-03-12T15:33:07.899Z,19.05
2023-03-12T15:35:36.831Z,18.35
2023-03-12T15:38:04.811Z,12.00
2023-03-12T15:40:32.516Z,20.48
2023-03-12T15:43:03.224Z,9.88
2023-03-12T15:45:36.259Z,15.52
2023-03-12T15:48:05.131Z,13.93
2023-03-12T15:50:38.681Z,10.73
2023-03-12T15:53:07.661Z,24.63
2023-03-12T15:55:35.947Z,18.23
2023-03-12T15:58:03.968Z,18.58
2023-03-12T16:00:31.927Z,14.25
2023-03-12T16:03:00.397Z,13.98
2023-03-12T16:05:30.530Z,16.65
2023-03-12T16:08:01.577Z,12.55
2023-03-12T16:10:29.280Z,8.88
2023-03-12T16:13:00.984Z,14.77
2023-03-12T16:15:30.833Z,21.27
2023-03-12T16:17:58.494Z,10.25
2023-03-12T16:20:26.381Z,11.10
2023-03-12T16:22:54.946Z,13.40
2023-03-12T16:25:24.036Z,13.85
2023-03-12T16:27:52.677Z,16.00
2023-03-12T16:30:21.981Z,24.80
2023-03-12T16:32:49.994Z,11.10
2023-03-12T16:35:18.709Z,11.82
2023-03-12T16:37:46.678Z,19.65
2023-03-12T16:40:21.204Z,10.93
2023-03-12T16:43:02.688Z,15.07
2023-03-12T16:45:30.923Z,16.65
2023-03-12T16:48:00.258Z,14.95
2023-03-12T16:50:29.279Z,11.85
2023-03-12T16:52:57.686Z,12.02
2023-03-12T16:55:27.687Z,15.05
2023-03-12T16:57:56.592Z,10.77
2023-03-12T17:00:27.247Z,10.32
2023-03-12T17:02:57.896Z,21.48
2023-03-12T17:05:25.820Z,12.73
2023-03-12T17:07:53.493Z,20.75
2023-03-12T17:10:21.398Z,16.02
2023-03-12T17:12:49.443Z,19.50
2023-03-12T17:15:19.940Z,17.08
2023-03-12T17:17:48.930Z,13.27
2023-03-12T17:20:17.862Z,9.73
2023-03-12T17:22:46.231Z,12.13
2023-03-12T17:25:21.129Z,13.20
2023-03-12T17:27:48.920Z,18.42
2023-03-12T17:30:16.664Z,15.50
2023-03-12T17:32:44.437Z,12.00
2023-03-12T17:35:13.663Z,16.95
2023-03-12T17:37:42.053Z,12.65
2023-03-12T17:40:11.377Z,13.18
2023-03-12T17:42:39.669Z,11.90
2023-03-12T17:45:08.671Z,15.68
2023-03-12T17:47:39.877Z,23.52
2023-03-12T17:50:08.243Z,12.20
2023-03-12T17:52:37.352Z,14.88
2023-03-12T17:55:05.967Z,15.20
2023-03-12T17:57:33.835Z,23.90
2023-03-12T18:00:01.643Z,23.27
2023-03-12T18:02:29.612Z,15.60
2023-03-12T18:04:57.360Z,22.15
2023-03-12T18:07:25.000Z,21.58
2023-03-12T18:09:54.050Z,17.70
2023-03-12T18:12:22.111Z,18.83
2023-03-12T18:14:49.875Z,19.15
2023-03-12T18:17:17.821Z,20.92
2023-03-12T18:19:45.498Z,23.35
2023-03-12T18:22:16.933Z,11.88
2023-03-12T18:24:44.586Z,13.32
2023-03-12T18:27:13.706Z,11.85
2023-03-12T18:29:42.181Z,14.90
2023-03-12T18:32:10.080Z,17.52
2023-03-12T18:34:41.329Z,17.17
2023-03-12T18:37:08.989Z,10.45
2023-03-12T18:39:36.643Z,14.80
2023-03-12T18:42:04.599Z,15.70
2023-03-12T18:44:33.726Z,15.75
2023-03-12T18:47:01.363Z,10.93
2023-03-12T18:49:29.296Z,10.63
2023-03-12T18:51:56.951Z,10.18
2023-03-12T18:54:25.004Z,15.88
2023-03-12T18:56:52.835Z,11.13
2023-03-12T18:59:20.500Z,16.90
2023-03-12T19:01:49.864Z,12.82
2023-03-12T19:04:18.497Z,9.90
2023-03-12T19:06:51.114Z,11.98
2023-03-12T19:09:19.108Z,16.45
2023-03-12T19:11:47.352Z,11.82
2023-03-12T19:14:15.289Z,14.40
2023-03-12T19:16:43.797Z,13.18
2023-03-12T19:19:12.877Z,9.60
2023-03-12T19:21:40.579Z,26.38
2023-03-12T19:24:08.253Z,18.58
2023-03-12T19:26:36.722Z,12.02
2023-03-12T19:29:04.351Z,10.80
2023-03-12T19:31:32.073Z,12.18
2023-03-12T19:33:59.745Z,11.82
2023-03-12T19:36:28.850Z,12.40
2023-03-12T19:38:56.484Z,8.18
2023-03-12T19:41:24.114Z,17.67
2023-03-12T19:43:51.859Z,9.80
2023-03-12T19:46:19.532Z,13.95
2023-03-12T19:48:47.156Z,9.95
2023-03-12T19:51:17.210Z,6.70
2023-03-12T19:53:46.527Z,9.20
2023-03-12T19:56:14.411Z,12.60
2023-03-12T19:58:42.060Z,14.30
2023-03-12T20:01:09.773Z,7.57
2023-03-12T20:03:43.421Z,9.88
2023-03-12T20:06:12.318Z,14.57
2023-03-12T20:08:40.529Z,10.27
2023-03-12T20:11:11.387Z,9.93
2023-03-12T20:13:39.976Z,8.00
2023-03-12T20:16:08.468Z,11.48
2023-03-12T20:18:36.192Z,20.48
2023-03-12T20:21:03.961Z,5.25
2023-03-12T20:23:32.882Z,9.77
2023-03-12T20:26:00.990Z,13.60
2023-03-12T20:28:30.039Z,12.23
2023-03-12T20:30:57.697Z,8.30
2023-03-12T20:33:25.324Z,11.95
2023-03-12T20:35:53.038Z,5.65
2023-03-12T20:38:20.850Z,9.07
2023-03-12T20:40:48.552Z,14.40
2023-03-12T20:43:16.213Z,12.30
2023-03-12T20:45:48.074Z,8.35
2023-03-12T20:48:15.775Z,5.25
2023-03-12T20:50:43.861Z,13.27
2023-03-12T20:53:11.639Z,9.15
2023-03-12T20:55:39.499Z,7.00
2023-03-12T20:58:07.390Z,10.93
2023-03-12T21:00:35.805Z,12.65
2023-03-12T21:03:04.934Z,10.85
2023-03-12T21:05:32.557Z,7.90
2023-03-12T21:08:01.057Z,7.45
2023-03-12T21:10:31.404Z,9.13
2023-03-12T21:12:59.569Z,12.77
2023-03-12T21:15:27.189Z,8.30
2023-03-12T21:17:54.888Z,10.82
2023-03-12T21:20:23.962Z,5.72
2023-03-12T21:22:51.680Z,9.52
2023-03-12T21:25:19.482Z,7.10
2023-03-12T21:27:51.506Z,10.10
2023-03-12T21:30:19.716Z,9.13
2023-03-12T21:32:47.764Z,7.18
2023-03-12T21:35:15.583Z,5.25
2023-03-12T21:37:44.703Z,11.90
2023-03-12T21:40:13.054Z,15.98
2023-03-12T21:42:42.111Z,12.10
2023-03-12T21:45:11.139Z,14.65
2023-03-12T21:47:39.226Z,14.13
2023-03-12T21:50:07.289Z,8.32
2023-03-12T21:52:43.004Z,6.90
2023-03-12T21:55:13.027Z,15.10
2023-03-12T21:57:40.709Z,11.10
2023-03-12T22:00:12.424Z,9.98
2023-03-12T22:02:40.210Z,6.88
2023-03-12T22:05:09.123Z,8.65
2023-03-12T22:07:36.795Z,14.35
2023-03-12T22:10:07.325Z,11.90
2023-03-12T22:12:36.280Z,11.98
2023-03-12T22:15:04.491Z,15.35
2023-03-12T22:17:35.522Z,12.07
2023-03-12T22:20:05.124Z,16.98
2023-03-12T22:22:33.614Z,12.55
2023-03-12T22:25:01.272Z,11.57
2023-03-12T22:27:29.082Z,10.82
2023-03-12T22:29:58.136Z,17.42
2023-03-12T22:32:25.986Z,17.60
2023-03-12T22:34:53.666Z,7.88
2023-03-12T22:37:21.284Z,9.20
2023-03-12T22:39:48.920Z,15.70
2023-03-12T22:42:25.650Z,24.17
2023-03-12T22:44:53.531Z,11.18
2023-03-12T22:47:23.389Z,13.25
2023-03-12T22:49:52.561Z,12.38
2023-03-12T22:52:20.813Z,20.95
2023-03-12T22:54:48.490Z,8.75
2023-03-12T22:57:16.244Z,16.05
2023-03-12T22:59:43.837Z,15.52
2023-03-12T23:02:11.666Z,13.73
2023-03-12T23:04:40.737Z,10.65
2023-03-12T23:07:15.326Z,30.42
2023-03-12T23:09:44.622Z,12.75
2023-03-12T23:12:12.234Z,15.45
2023-03-12T23:14:39.886Z,12.98
2023-03-12T23:17:08.014Z,18.08
2023-03-12T23:19:36.493Z,15.25
2023-03-12T23:22:05.789Z,10.88
2023-03-12T23:24:33.400Z,13.02
2023-03-12T23:27:01.228Z,9.10
2023-03-12T23:29:33.529Z,13.07
2023-03-12T23:32:01.479Z,9.43
2023-03-12T23:34:29.173Z,11.48
2023-03-12T23:36:57.190Z,9.45
2023-03-12T23:39:27.461Z,16.20
2023-03-12T23:41:56.394Z,10.45
2023-03-12T23:44:24.292Z,16.63
2023-03-12T23:46:51.942Z,8.70
2023-03-12T23:49:19.616Z,10.32
2023-03-12T23:51:47.466Z,12.20
2023-03-12T23:54:16.220Z,11.98
2023-03-12T23:56:45.186Z,11.20
2023-03-12T23:59:12.924Z,17.85
